Time;durP1;ratioP1;P1;durP2;ratioP2;P2;SDS_P1;SDS_P2;PMS_P1;PMS_P2;Temp;Humidity;BMP_temperature;BMP_pressure;BME280_temperature;BME280_humidity;BME280_pressure;Samples;Min_cycle;Max_cycle;Signal;HPM_P1;HPM_P2
2021/04/28 00:01:31;;;;;;;8.67;7.23;;;4.20;1.00;;;;;;5029561;28;20619;-59
2021/04/28 00:03:57;;;;;;;9.73;7.60;;;4.20;1.00;;;;;;5030833;28;20595;-60
2021/04/28 00:06:22;;;;;;;9.80;7.70;;;4.20;1.00;;;;;;5029770;28;20741;-61
2021/04/28 00:08:48;;;;;;;11.17;7.40;;;4.10;1.00;;;;;;5022817;28;21221;-59
2021/04/28 00:11:14;;;;;;;7.67;6.47;;;4.10;1.00;;;;;;5032584;28;20649;-60
2021/04/28 00:13:39;;;;;;;9.20;7.40;;;4.10;1.00;;;;;;5032523;28;20269;-60
2021/04/28 00:16:05;;;;;;;8.50;7.70;;;4.00;36.20;;;;;;5038688;28;20614;-61
2021/04/28 00:18:31;;;;;;;8.25;6.85;;;4.00;99.90;;;;;;5031468;28;20646;-59
2021/04/28 00:20:57;;;;;;;8.43;7.60;;;3.90;99.90;;;;;;5029169;28;20261;-59
2021/04/28 00:23:22;;;;;;;7.97;7.03;;;3.90;1.00;;;;;;5019114;28;20617;-59
2021/04/28 00:25:48;;;;;;;8.20;7.33;;;3.90;99.90;;;;;;5032412;28;20261;-60
2021/04/28 00:28:14;;;;;;;9.50;7.33;;;3.80;99.90;;;;;;5032489;28;20186;-60
2021/04/28 00:30:40;;;;;;;8.53;7.60;;;3.80;1.00;;;;;;5032107;28;21021;-60
2021/04/28 00:33:06;;;;;;;9.50;7.43;;;3.70;1.00;;;;;;5030787;28;20197;-60
2021/04/28 00:35:32;;;;;;;7.47;6.63;;;3.70;1.00;;;;;;5032226;28;20425;-59
2021/04/28 00:37:58;;;;;;;7.93;7.20;;;3.70;1.00;;;;;;5045951;28;20436;-60
2021/04/28 00:40:30;;;;;;;7.73;6.80;;;3.70;99.90;;;;;;5032363;28;20225;-60
2021/04/28 00:42:56;;;;;;;8.07;7.22;;;3.70;76.70;;;;;;5032039;28;20421;-60
2021/04/28 00:45:25;;;;;;;8.32;7.20;;;3.60;72.00;;;;;;5031110;28;20268;-59
2021/04/28 00:47:54;;;;;;;9.45;7.35;;;3.60;99.90;;;;;;5030860;28;20598;-60
2021/04/28 00:50:25;;;;;;;9.40;7.47;;;3.60;1.00;;;;;;5026806;28;20286;-60
2021/04/28 00:52:51;;;;;;;8.35;7.13;;;3.60;99.90;;;;;;5026481;28;20270;-59
2021/04/28 00:55:16;;;;;;;7.82;7.03;;;3.60;1.00;;;;;;5031464;28;20274;-60
2021/04/28 00:57:42;;;;;;;9.03;7.60;;;3.60;99.90;;;;;;5031946;28;20297;-59
2021/04/28 01:00:11;;;;;;;9.20;7.30;;;3.60;99.90;;;;;;5031038;28;21033;-56
2021/04/28 01:02:37;;;;;;;8.80;7.70;;;3.60;99.90;;;;;;5018389;28;20571;-60
2021/04/28 01:05:05;;;;;;;9.32;7.40;;;3.60;94.40;;;;;;5046760;28;20206;-60
2021/04/28 01:07:31;;;;;;;8.82;7.53;;;3.60;99.90;;;;;;5030164;28;20701;-60
2021/04/28 01:09:58;;;;;;;8.77;7.47;;;3.60;99.90;;;;;;5031823;28;20158;-60
2021/04/28 01:12:24;;;;;;;7.80;6.72;;;3.60;99.90;;;;;;5031225;28;20185;-60
2021/04/28 01:14:51;;;;;;;8.10;7.28;;;3.60;99.90;;;;;;5020998;28;20646;-60
2021/04/28 01:17:18;;;;;;;8.43;7.10;;;3.60;98.90;;;;;;5019565;28;20998;-60
2021/04/28 01:19:44;;;;;;;7.95;7.15;;;3.60;58.70;;;;;;5031156;28;20252;-60
2021/04/28 01:22:10;;;;;;;7.70;6.90;;;3.60;7.70;;;;;;5030779;28;20171;-60
2021/04/28 01:24:35;;;;;;;10.23;7.57;;;3.60;94.80;;;;;;5030874;28;20183;-58
2021/04/28 01:27:07;;;;;;;7.13;6.47;;;3.60;1.00;;;;;;5028815;28;20421;-60
2021/04/28 01:29:34;;;;;;;8.15;7.03;;;3.60;1.00;;;;;;5028663;28;20194;-59
2021/04/28 01:32:01;;;;;;;8.63;7.65;;;3.60;1.00;;;;;;5030892;28;20186;-60
2021/04/28 01:34:27;;;;;;;10.82;6.90;;;3.60;1.00;;;;;;5030157;28;20186;-61
2021/04/28 01:36:54;;;;;;;7.60;6.80;;;3.60;1.00;;;;;;5029713;28;20186;-61
2021/04/28 01:39:20;;;;;;;12.80;6.47;;;3.70;99.90;;;;;;5031179;28;20249;-61
2021/04/28 01:41:48;;;;;;;9.82;7.00;;;3.70;99.90;;;;;;5030578;28;20186;-60
2021/04/28 01:44:19;;;;;;;8.70;6.80;;;3.70;99.90;;;;;;5030561;28;20182;-60
2021/04/28 01:46:45;;;;;;;8.32;7.32;;;3.70;99.90;;;;;;5020883;28;20202;-59
2021/04/28 01:49:11;;;;;;;7.95;7.13;;;3.70;99.90;;;;;;5019311;28;20217;-59
2021/04/28 01:51:38;;;;;;;7.40;6.57;;;3.70;99.90;;;;;;5030801;28;20201;-60
2021/04/28 01:54:07;;;;;;;10.00;7.47;;;3.70;99.90;;;;;;5030595;28;20181;-59
2021/04/28 01:56:33;;;;;;;8.13;7.22;;;3.70;99.90;;;;;;5030278;28;20577;-60
2021/04/28 01:58:59;;;;;;;7.43;6.73;;;3.70;99.90;;;;;;5030209;28;20193;-60
2021/04/28 02:01:25;;;;;;;8.18;6.88;;;3.70;99.90;;;;;;5016913;28;20434;-60
2021/04/28 02:03:54;;;;;;;7.87;6.67;;;3.70;99.90;;;;;;5027510;28;20269;-60
2021/04/28 02:06:19;;;;;;;9.02;7.05;;;3.70;99.90;;;;;;5030257;28;20471;-60
2021/04/28 02:08:45;;;;;;;9.10;7.40;;;3.70;99.90;;;;;;5030003;28;20187;-60
2021/04/28 02:11:11;;;;;;;8.35;6.97;;;3.70;99.90;;;;;;5030244;28;20183;-59
2021/04/28 02:13:39;;;;;;;8.40;7.33;;;3.70;99.90;;;;;;5029676;28;20190;-60
2021/04/28 02:16:06;;;;;;;7.80;7.00;;;3.70;99.90;;;;;;5030978;28;20461;-60
2021/04/28 02:18:33;;;;;;;9.23;7.35;;;3.70;99.90;;;;;;5023317;28;20214;-60
2021/04/28 02:21:03;;;;;;;10.48;7.25;;;3.70;99.90;;;;;;5030195;28;20221;-59
2021/04/28 02:23:31;;;;;;;8.05;7.25;;;3.70;99.90;;;;;;5029807;28;20170;-59
2021/04/28 02:25:58;;;;;;;9.00;8.10;;;3.60;99.90;;;;;;5028357;28;20202;-61
2021/04/28 02:28:24;;;;;;;7.72;6.78;;;3.60;99.90;;;;;;5039342;28;20201;-59
2021/04/28 02:30:49;;;;;;;9.03;8.07;;;3.60;99.90;;;;;;5023595;28;20715;-59
2021/04/28 02:33:16;;;;;;;8.80;7.27;;;3.60;99.90;;;;;;5028705;28;20305;-59
2021/04/28 02:35:42;;;;;;;12.00;6.82;;;3.60;99.90;;;;;;5029999;28;20205;-59
2021/04/28 02:38:24;;;;;;;8.80;7.07;;;3.50;99.90;;;;;;5029578;28;20191;-60
2021/04/28 02:40:50;;;;;;;9.45;7.18;;;3.60;99.90;;;;;;5026766;28;20472;-60
2021/04/28 02:43:19;;;;;;;8.02;6.75;;;3.50;99.90;;;;;;5028640;28;20193;-60
2021/04/28 02:45:47;;;;;;;6.63;5.90;;;3.50;99.90;;;;;;5031252;28;20178;-60
2021/04/28 02:48:13;;;;;;;9.60;6.95;;;3.50;99.90;;;;;;5027880;28;20186;-60
2021/04/28 02:50:39;;;;;;;9.57;7.50;;;3.50;99.90;;;;;;5046157;28;20223;-60
2021/04/28 02:53:10;;;;;;;8.63;7.10;;;3.40;1.00;;;;;;5029957;28;20190;-59
2021/04/28 02:55:36;;;;;;;7.82;6.70;;;3.40;1.00;;;;;;5030522;28;20494;-59
2021/04/28 02:58:03;;;;;;;8.55;7.65;;;3.40;1.00;;;;;;5031040;28;20193;-61
2021/04/28 03:00:29;;;;;;;7.80;6.85;;;3.40;1.00;;;;;;5022521;28;20229;-60
2021/04/28 03:02:59;;;;;;;7.85;7.05;;;3.30;1.00;;;;;;5031278;28;20216;-60
2021/04/28 03:05:25;;;;;;;9.73;7.30;;;3.30;1.00;;;;;;5030657;28;20190;-61
2021/04/28 03:07:53;;;;;;;17.20;7.50;;;3.30;1.00;;;;;;5028088;28;20629;-60
2021/04/28 03:10:19;;;;;;;8.45;7.00;;;3.30;1.00;;;;;;5022656;28;20194;-59
2021/04/28 03:12:46;;;;;;;10.10;7.75;;;3.30;99.90;;;;;;5031409;28;20532;-60
2021/04/28 03:15:14;;;;;;;7.95;7.13;;;3.30;99.90;;;;;;5042836;28;20189;-60
2021/04/28 03:17:40;;;;;;;10.13;7.57;;;3.20;99.90;;;;;;5021922;28;20779;-61
2021/04/28 03:20:08;;;;;;;8.40;7.50;;;3.20;1.00;;;;;;5029111;28;20284;-59
2021/04/28 03:22:35;;;;;;;12.93;8.27;;;3.20;90.20;;;;;;5030194;28;20668;-60
2021/04/28 03:25:01;;;;;;;9.65;7.65;;;3.10;99.90;;;;;;5028364;28;20186;-59
2021/04/28 03:27:26;;;;;;;7.90;7.10;;;3.10;1.00;;;;;;5027477;28;20198;-60
2021/04/28 03:29:52;;;;;;;9.00;7.90;;;3.10;9.70;;;;;;5028745;28;20234;-59
2021/04/28 03:32:18;;;;;;;8.80;7.90;;;3.00;1.00;;;;;;5030853;28;20189;-60
2021/04/28 03:34:43;;;;;;;11.93;8.00;;;3.00;1.00;;;;;;5030617;28;20196;-60
2021/04/28 03:37:09;;;;;;;8.77;7.87;;;3.00;1.00;;;;;;5027839;28;20277;-60
2021/04/28 03:39:35;;;;;;;9.20;7.30;;;3.00;1.00;;;;;;5026835;28;20221;-60
2021/04/28 03:42:01;;;;;;;9.93;7.40;;;3.00;1.00;;;;;;5030092;28;20417;-62
2021/04/28 03:44:27;;;;;;;10.38;7.70;;;3.00;1.00;;;;;;5028954;28;20428;-60
2021/04/28 03:46:53;;;;;;;9.33;7.73;;;3.00;99.90;;;;;;5029090;28;20228;-59
2021/04/28 03:49:18;;;;;;;12.50;8.20;;;2.90;99.90;;;;;;5028135;28;20190;-60
2021/04/28 03:51:45;;;;;;;7.70;6.80;;;3.00;99.90;;;;;;5027917;28;20460;-60
2021/04/28 03:54:12;;;;;;;8.27;7.50;;;2.90;1.00;;;;;;5028159;28;20703;-60
2021/04/28 03:56:39;;;;;;;9.75;7.82;;;3.00;1.00;;;;;;5029529;28;20221;-59
2021/04/28 03:59:06;;;;;;;8.40;6.90;;;2.90;99.90;;;;;;5028404;28;20189;-59
2021/04/28 04:01:32;;;;;;;10.60;7.75;;;3.00;99.90;;;;;;5027587;28;20179;-59
2021/04/28 04:03:57;;;;;;;10.33;7.73;;;2.90;99.90;;;;;;5029097;28;20212;-61
2021/04/28 04:06:23;;;;;;;10.37;7.10;;;2.90;1.00;;;;;;5028266;28;20201;-61
2021/04/28 04:08:48;;;;;;;11.57;8.17;;;2.90;1.00;;;;;;5028685;28;21052;-61
2021/04/28 04:11:14;;;;;;;9.27;7.53;;;2.90;1.00;;;;;;5020789;28;20190;-60
2021/04/28 04:13:39;;;;;;;9.53;7.30;;;2.90;1.00;;;;;;5029903;28;20185;-60
2021/04/28 04:16:05;;;;;;;10.30;7.90;;;2.90;1.00;;;;;;5031612;28;20273;-60
2021/04/28 04:18:30;;;;;;;10.07;7.60;;;2.90;99.90;;;;;;5012327;28;20297;-60
2021/04/28 04:20:56;;;;;;;11.57;7.97;;;2.90;1.00;;;;;;5004128;28;20229;-59
2021/04/28 04:23:22;;;;;;;11.47;8.30;;;3.00;85.60;;;;;;5007223;28;20218;-59
2021/04/28 04:25:47;;;;;;;10.70;8.70;;;3.00;99.90;;;;;;5009512;28;20782;-60
2021/04/28 04:28:13;;;;;;;10.90;8.23;;;3.00;99.90;;;;;;5006349;28;20608;-60
2021/04/28 04:30:38;;;;;;;10.67;8.10;;;3.00;99.90;;;;;;5004201;28;20235;-60
2021/04/28 04:33:04;;;;;;;10.57;8.47;;;3.00;99.90;;;;;;5004929;28;20187;-60
2021/04/28 04:35:30;;;;;;;11.43;8.37;;;3.00;99.90;;;;;;5007403;28;20237;-61
2021/04/28 04:37:55;;;;;;;10.50;7.90;;;3.10;99.90;;;;;;5016802;28;20287;-60
2021/04/28 04:40:21;;;;;;;11.27;8.23;;;3.10;99.90;;;;;;5024470;28;20221;-60
2021/04/28 04:42:46;;;;;;;8.87;8.00;;;3.10;99.90;;;;;;5027293;28;20697;-60
2021/04/28 04:45:12;;;;;;;10.87;8.60;;;3.10;99.90;;;;;;5027550;28;20217;-61
2021/04/28 04:47:38;;;;;;;9.52;8.30;;;3.10;99.90;;;;;;5028903;28;20189;-61
2021/04/28 04:50:05;;;;;;;9.23;8.23;;;3.10;98.70;;;;;;5032383;28;20263;-61
2021/04/28 04:52:31;;;;;;;17.65;9.35;;;3.20;1.00;;;;;;5032321;28;20451;-61
2021/04/28 04:54:57;;;;;;;11.93;9.47;;;3.20;99.90;;;;;;5047360;28;20187;-61
2021/04/28 04:57:22;;;;;;;13.03;9.27;;;3.30;1.00;;;;;;5031077;28;20193;-60
2021/04/28 04:59:48;;;;;;;11.17;8.70;;;3.30;99.90;;;;;;5031560;28;20698;-60
2021/04/28 05:02:13;;;;;;;12.90;9.10;;;3.30;1.00;;;;;;5026704;28;20240;-60
2021/04/28 05:04:39;;;;;;;9.53;8.40;;;3.30;99.90;;;;;;5032038;28;20190;-59
2021/04/28 05:07:04;;;;;;;10.07;9.00;;;3.40;99.90;;;;;;5031224;28;20186;-61
2021/04/28 05:09:30;;;;;;;12.97;8.87;;;3.50;99.90;;;;;;5031687;28;20201;-60
2021/04/28 05:11:55;;;;;;;10.37;8.67;;;3.50;1.00;;;;;;5029316;28;20652;-59
2021/04/28 05:14:21;;;;;;;11.70;8.80;;;3.60;1.00;;;;;;5038282;28;20826;-60
2021/04/28 05:16:47;;;;;;;12.10;9.83;;;3.70;99.90;;;;;;5051904;28;20226;-60
2021/04/28 05:19:13;;;;;;;12.13;8.38;;;3.80;1.00;;;;;;5039712;28;20728;-60
2021/04/28 05:21:38;;;;;;;15.47;9.40;;;3.90;99.90;;;;;;5025378;28;20261;-60
2021/04/28 05:24:04;;;;;;;10.60;8.60;;;4.00;1.00;;;;;;5031682;28;20532;-60
2021/04/28 05:26:30;;;;;;;9.43;8.25;;;4.10;10.00;;;;;;5028832;28;20253;-61
2021/04/28 05:28:56;;;;;;;9.53;8.23;;;4.20;1.00;;;;;;5030274;28;20269;-60
2021/04/28 05:31:21;;;;;;;10.10;8.43;;;4.30;1.00;;;;;;5030932;28;20248;-61
2021/04/28 05:33:47;;;;;;;12.20;8.90;;;4.40;99.90;;;;;;5020211;28;20541;-60
2021/04/28 05:36:13;;;;;;;10.30;8.70;;;4.50;1.00;;;;;;5020169;28;20871;-60
2021/04/28 05:38:38;;;;;;;9.63;8.30;;;4.70;1.00;;;;;;5031496;28;20269;-60
2021/04/28 05:41:04;;;;;;;11.07;8.80;;;4.80;99.90;;;;;;5029895;28;20735;-61
2021/04/28 05:43:30;;;;;;;10.87;8.30;;;4.90;99.90;;;;;;5046381;28;20179;-58
2021/04/28 05:45:56;;;;;;;10.55;8.93;;;5.10;1.00;;;;;;5032542;28;20167;-60
2021/04/28 05:48:21;;;;;;;10.17;9.17;;;5.20;1.00;;;;;;5026015;28;20187;-59
2021/04/28 05:50:47;;;;;;;10.00;8.93;;;5.40;1.00;;;;;;5017069;28;20184;-60
2021/04/28 05:53:13;;;;;;;10.27;9.20;;;5.50;99.90;;;;;;5019957;28;20201;-60
2021/04/28 05:55:39;;;;;;;9.53;8.63;;;5.60;99.90;;;;;;5032735;28;20236;-61
2021/04/28 05:58:06;;;;;;;14.10;10.52;;;5.80;92.50;;;;;;5028875;28;20442;-60
2021/04/28 06:00:32;;;;;;;10.45;8.50;;;6.10;1.00;;;;;;5018187;28;20309;-61
2021/04/28 06:02:57;;;;;;;10.00;8.30;;;6.30;1.00;;;;;;5046708;28;20728;-61
2021/04/28 06:05:23;;;;;;;9.87;8.80;;;6.50;1.00;;;;;;5033067;28;20475;-61
2021/04/28 06:07:49;;;;;;;11.20;8.70;;;6.70;1.00;;;;;;5035075;28;20573;-61
2021/04/28 06:10:15;;;;;;;9.50;8.13;;;6.90;1.00;;;;;;5031872;28;20948;-60
2021/04/28 06:12:41;;;;;;;8.90;8.05;;;7.10;1.00;;;;;;5031578;28;20190;-60
2021/04/28 06:15:08;;;;;;;12.27;8.63;;;7.30;1.00;;;;;;5043399;28;20214;-60
2021/04/28 06:17:34;;;;;;;10.05;9.07;;;7.60;99.90;;;;;;5031661;28;20210;-60
2021/04/28 06:20:00;;;;;;;9.30;8.40;;;7.80;99.90;;;;;;5031633;28;20209;-61
2021/04/28 06:22:26;;;;;;;10.45;9.40;;;7.90;99.90;;;;;;5031374;28;20186;-61
2021/04/28 06:24:51;;;;;;;10.80;9.10;;;8.10;99.90;;;;;;5031498;28;20507;-60
2021/04/28 06:27:17;;;;;;;10.90;9.47;;;8.30;99.90;;;;;;5031273;28;20664;-60
2021/04/28 06:29:43;;;;;;;10.60;9.50;;;8.60;99.90;;;;;;5031333;28;20590;-60
2021/04/28 06:32:09;;;;;;;10.70;9.60;;;8.70;99.90;;;;;;5031316;28;20898;-60
2021/04/28 06:34:35;;;;;;;11.03;9.23;;;8.90;99.90;;;;;;5031352;28;20214;-61
2021/04/28 06:37:00;;;;;;;9.93;9.00;;;9.00;99.90;;;;;;5031220;28;20570;-60
2021/04/28 06:39:26;;;;;;;10.23;9.13;;;9.10;99.90;;;;;;5029850;28;20947;-64
2021/04/28 06:41:52;;;;;;;11.43;9.53;;;9.30;99.90;;;;;;5030785;28;20190;-62
2021/04/28 06:44:17;;;;;;;10.10;8.90;;;9.40;99.90;;;;;;5027440;28;20436;-61
2021/04/28 06:46:43;;;;;;;12.60;9.77;;;9.50;99.90;;;;;;5027135;28;20558;-61
2021/04/28 06:49:09;;;;;;;9.83;8.67;;;9.70;99.90;;;;;;5027069;28;20985;-66
2021/04/28 06:51:34;;;;;;;10.73;9.40;;;9.80;99.90;;;;;;5028247;28;20872;-65
2021/04/28 06:54:00;;;;;;;10.80;9.40;;;9.80;99.90;;;;;;5029018;28;20535;-64
2021/04/28 06:56:27;;;;;;;11.57;10.37;;;10.00;99.90;;;;;;5029279;28;20186;-61
2021/04/28 06:58:53;;;;;;;10.87;9.77;;;10.10;99.90;;;;;;5026944;28;20555;-67
2021/04/28 07:01:18;;;;;;;11.67;10.23;;;10.20;99.90;;;;;;5022730;28;21026;-60
2021/04/28 07:03:44;;;;;;;13.37;10.50;;;10.30;99.90;;;;;;5027466;28;20182;-61
2021/04/28 07:06:13;;;;;;;12.80;9.80;;;10.30;99.90;;;;;;5028603;28;20414;-64
2021/04/28 07:08:39;;;;;;;12.10;10.40;;;10.40;99.90;;;;;;5027634;28;20175;-61
2021/04/28 07:11:06;;;;;;;11.87;10.67;;;10.60;99.90;;;;;;5026877;28;20491;-63
2021/04/28 07:13:31;;;;;;;13.50;10.13;;;10.60;99.90;;;;;;5027414;28;20190;-61
2021/04/28 07:15:57;;;;;;;11.80;10.60;;;10.70;99.90;;;;;;5028383;28;20500;-61
2021/04/28 07:18:23;;;;;;;12.10;10.40;;;10.90;99.90;;;;;;5027904;28;20329;-61
2021/04/28 07:20:49;;;;;;;11.90;10.70;;;11.00;99.90;;;;;;5028605;28;20206;-61
2021/04/28 07:23:14;;;;;;;13.57;11.30;;;11.10;99.90;;;;;;5028278;28;20605;-61
2021/04/28 07:25:40;;;;;;;13.33;11.40;;;11.30;99.90;;;;;;5029051;28;20703;-62
2021/04/28 07:28:05;;;;;;;12.97;11.57;;;11.40;99.90;;;;;;5023388;28;20175;-61
2021/04/28 07:30:31;;;;;;;13.50;12.20;;;11.50;99.90;;;;;;5027241;28;20233;-60
2021/04/28 07:32:57;;;;;;;13.50;12.10;;;11.60;99.90;;;;;;5026937;28;20186;-59
2021/04/28 07:35:23;;;;;;;13.53;12.13;;;11.70;99.90;;;;;;5026551;28;20432;-60
2021/04/28 07:37:50;;;;;;;16.60;12.10;;;11.80;99.90;;;;;;5027280;28;20281;-61
2021/04/28 07:40:16;;;;;;;13.03;11.70;;;11.90;99.90;;;;;;5026629;28;20496;-62
2021/04/28 07:42:42;;;;;;;15.83;12.73;;;12.00;99.90;;;;;;5027734;28;21141;-61
2021/04/28 07:45:09;;;;;;;15.03;13.00;;;12.10;99.90;;;;;;5027741;28;20417;-61
2021/04/28 07:47:35;;;;;;;14.63;13.23;;;12.20;99.90;;;;;;5027280;28;20194;-60
2021/04/28 07:50:00;;;;;;;15.73;13.47;;;12.30;99.90;;;;;;5026490;28;20419;-61
2021/04/28 07:52:26;;;;;;;15.23;13.67;;;12.40;99.90;;;;;;5026041;28;20437;-59
2021/04/28 07:54:52;;;;;;;15.97;14.27;;;12.50;99.90;;;;;;5027863;28;20187;-60
2021/04/28 07:57:18;;;;;;;15.60;13.97;;;12.50;99.90;;;;;;5027694;28;20190;-61
2021/04/28 07:59:44;;;;;;;15.40;14.00;;;12.60;99.90;;;;;;5027425;28;20228;-61
2021/04/28 08:02:10;;;;;;;15.30;13.80;;;12.70;99.90;;;;;;5027854;28;20418;-61
2021/04/28 08:04:38;;;;;;;17.07;15.13;;;12.80;99.90;;;;;;5027445;28;20430;-62
2021/04/28 08:07:07;;;;;;;14.23;12.93;;;12.90;99.90;;;;;;5027875;28;20505;-61
2021/04/28 08:09:35;;;;;;;15.83;14.33;;;12.90;99.90;;;;;;5027133;28;20496;-60
2021/04/28 08:12:01;;;;;;;16.03;14.27;;;13.00;99.90;;;;;;5021833;28;20417;-65
2021/04/28 08:14:27;;;;;;;15.87;14.17;;;13.20;99.90;;;;;;5018525;28;20467;-61
2021/04/28 08:16:53;;;;;;;16.10;14.60;;;13.40;99.90;;;;;;5024208;28;20429;-60
2021/04/28 08:19:18;;;;;;;17.57;14.77;;;13.50;99.90;;;;;;5029711;28;20186;-63
2021/04/28 08:21:44;;;;;;;17.07;13.40;;;13.70;99.90;;;;;;5027412;28;20182;-64
2021/04/28 08:24:09;;;;;;;16.53;14.90;;;13.70;99.90;;;;;;5030579;28;20307;-60
2021/04/28 08:26:35;;;;;;;15.90;14.37;;;13.80;99.90;;;;;;5031096;28;20652;-63
2021/04/28 08:29:00;;;;;;;15.53;13.87;;;14.00;99.90;;;;;;5022721;28;20229;-61
2021/04/28 08:31:26;;;;;;;15.80;14.20;;;14.20;99.90;;;;;;5027133;28;20789;-61
2021/04/28 08:33:52;;;;;;;15.80;14.20;;;14.40;99.90;;;;;;5030445;28;20533;-61
2021/04/28 08:36:17;;;;;;;15.53;13.93;;;14.50;99.90;;;;;;5031046;28;20189;-63
2021/04/28 08:38:43;;;;;;;15.47;13.93;;;14.70;99.90;;;;;;5030811;28;20179;-61
2021/04/28 08:41:11;;;;;;;15.37;14.00;;;15.00;99.90;;;;;;5029344;28;20205;-63
2021/04/28 08:43:36;;;;;;;13.87;12.67;;;15.20;99.90;;;;;;5030895;28;20240;-62
2021/04/28 08:46:03;;;;;;;15.87;14.30;;;15.40;99.90;;;;;;5030920;28;20417;-60
2021/04/28 08:48:29;;;;;;;15.20;13.73;;;15.70;99.90;;;;;;5030699;28;20293;-61
2021/04/28 08:50:56;;;;;;;16.67;15.00;;;16.10;99.90;;;;;;5029221;28;20464;-61
2021/04/28 08:53:23;;;;;;;14.93;13.60;;;16.20;99.90;;;;;;5030262;28;20807;-60
2021/04/28 08:55:49;;;;;;;16.23;14.73;;;16.40;99.90;;;;;;5029979;28;21020;-60
2021/04/28 08:58:14;;;;;;;17.97;15.00;;;16.60;99.90;;;;;;5030098;28;20498;-60
2021/04/28 09:00:40;;;;;;;17.90;14.80;;;16.90;99.90;;;;;;5029366;28;20270;-60
2021/04/28 09:03:06;;;;;;;15.17;13.77;;;17.00;99.90;;;;;;5029659;28;20874;-60
2021/04/28 09:05:33;;;;;;;15.70;14.07;;;17.40;99.90;;;;;;5030435;28;20345;-60
2021/04/28 09:07:59;;;;;;;16.17;14.77;;;17.90;99.90;;;;;;5030256;28;20508;-62
2021/04/28 09:10:29;;;;;;;15.73;14.23;;;18.50;99.90;;;;;;5030456;28;20976;-60
2021/04/28 09:13:01;;;;;;;14.97;13.57;;;18.90;99.90;;;;;;5030349;28;20778;-62
2021/04/28 09:15:42;;;;;;;14.60;13.40;;;19.50;99.90;;;;;;5031532;28;21290;-60
2021/04/28 09:18:10;;;;;;;14.57;13.07;;;20.10;99.90;;;;;;5030184;28;20428;-62
2021/04/28 09:20:45;;;;;;;15.57;14.00;;;20.30;99.90;;;;;;5029910;28;20457;-60
2021/04/28 09:23:26;;;;;;;15.47;14.17;;;20.70;99.90;;;;;;5029940;28;20434;-65
2021/04/28 09:25:53;;;;;;;15.53;14.13;;;20.80;99.90;;;;;;5023382;28;20476;-64
2021/04/28 09:28:36;;;;;;;14.33;13.13;;;21.00;99.90;;;;;;5024849;28;20425;-59
2021/04/28 09:31:07;;;;;;;16.37;14.70;;;21.50;99.90;;;;;;5029940;28;20519;-61
2021/04/28 09:33:58;;;;;;;14.23;13.03;;;21.70;99.90;;;;;;5029585;28;20465;-62
2021/04/28 09:36:28;;;;;;;14.93;13.70;;;22.30;99.90;;;;;;5027048;28;20440;-63
2021/04/28 09:38:58;;;;;;;15.80;14.40;;;22.90;99.90;;;;;;5030203;28;20425;-64
2021/04/28 09:41:32;;;;;;;17.97;16.17;;;23.40;99.90;;;;;;5027763;28;20464;-61
2021/04/28 09:43:58;;;;;;;16.40;15.00;;;22.50;99.90;;;;;;5028158;28;20421;-60
2021/04/28 09:46:23;;;;;;;16.43;14.87;;;21.80;99.90;;;;;;5028452;28;20427;-59
2021/04/28 09:49:01;;;;;;;17.03;15.60;;;21.90;99.90;;;;;;5029589;28;21046;-61
2021/04/28 09:51:35;;;;;;;15.90;14.40;;;22.20;99.90;;;;;;5026475;28;20273;-62
2021/04/28 09:54:13;;;;;;;15.73;14.43;;;22.50;99.90;;;;;;5029553;28;20457;-60
2021/04/28 09:56:40;;;;;;;14.43;13.27;;;22.80;99.90;;;;;;5029937;28;20413;-57
2021/04/28 09:59:06;;;;;;;15.70;14.40;;;23.60;99.90;;;;;;5043695;28;20441;-60
2021/04/28 10:01:34;;;;;;;14.10;12.80;;;23.60;99.90;;;;;;5029483;28;20471;-60
2021/04/28 10:04:02;;;;;;;14.63;13.43;;;23.70;99.90;;;;;;5029538;28;20429;-59
2021/04/28 10:06:41;;;;;;;15.00;13.80;;;24.10;99.90;;;;;;5029817;28;20640;-56
2021/04/28 10:09:40;;;;;;;14.70;13.50;;;24.70;99.90;;;;;;5029020;28;20437;-60
2021/04/28 10:12:13;;;;;;;16.13;14.73;;;24.70;99.90;;;;;;5028541;28;20460;-60
2021/04/28 10:14:39;;;;;;;14.30;13.10;;;25.00;99.90;;;;;;5018954;28;20437;-59
2021/04/28 10:17:07;;;;;;;15.17;13.87;;;24.90;99.90;;;;;;5023144;28;20947;-60
2021/04/28 10:19:34;;;;;;;14.87;13.60;;;25.10;99.90;;;;;;5029411;28;20428;-60
2021/04/28 10:22:05;;;;;;;15.97;14.23;;;24.50;99.90;;;;;;5027035;28;20487;-60
2021/04/28 10:24:31;;;;;;;15.07;13.77;;;24.50;99.90;;;;;;5026841;28;20405;-59
2021/04/28 10:26:58;;;;;;;15.10;13.90;;;25.00;99.90;;;;;;5029040;28;20908;-60
2021/04/28 10:29:25;;;;;;;16.73;15.13;;;24.20;99.90;;;;;;5028274;28;20429;-60
2021/04/28 10:31:54;;;;;;;16.00;14.70;;;23.20;99.90;;;;;;5029333;28;20441;-60
2021/04/28 10:34:33;;;;;;;15.17;13.87;;;23.20;99.90;;;;;;5028478;28;20456;-61
2021/04/28 10:36:59;;;;;;;16.60;15.17;;;23.70;99.90;;;;;;5025054;28;20912;-61
2021/04/28 10:39:26;;;;;;;16.07;14.73;;;23.60;99.90;;;;;;5018536;28;20428;-60
2021/04/28 10:41:54;;;;;;;16.27;14.77;;;23.20;99.90;;;;;;5029148;28;20422;-61
2021/04/28 10:44:40;;;;;;;15.27;13.87;;;23.00;99.90;;;;;;5015639;28;20454;-58
2021/04/28 10:47:39;;;;;;;16.23;14.93;;;23.20;99.90;;;;;;5012576;28;20413;-60
2021/04/28 10:50:35;;;;;;;13.23;12.13;;;23.80;99.90;;;;;;5017077;28;20460;-59
2021/04/28 10:53:04;;;;;;;14.13;13.03;;;24.60;99.90;;;;;;5027749;28;20433;-60
2021/04/28 10:55:39;;;;;;;15.57;14.20;;;25.50;99.90;;;;;;5019285;28;20437;-61
2021/04/28 10:58:25;;;;;;;14.70;13.40;;;25.70;99.90;;;;;;5028925;28;20436;-61
2021/04/28 11:01:14;;;;;;;16.77;15.27;;;26.20;99.90;;;;;;5028384;28;20549;-60
2021/04/28 11:03:47;;;;;;;15.73;14.17;;;26.30;99.90;;;;;;5025328;28;21288;-60
2021/04/28 11:06:19;;;;;;;13.73;12.53;;;26.00;99.90;;;;;;5021957;28;20421;-59
2021/04/28 11:08:49;;;;;;;14.27;13.10;;;26.30;99.90;;;;;;5018801;28;20535;-60
2021/04/28 11:11:30;;;;;;;15.00;13.60;;;26.30;99.90;;;;;;5021076;28;20448;-60
2021/04/28 11:14:10;;;;;;;13.50;12.43;;;26.80;99.90;;;;;;5019514;28;20777;-60
2021/04/28 11:17:06;;;;;;;15.63;14.30;;;26.70;99.90;;;;;;5032466;28;20508;-60
2021/04/28 11:19:38;;;;;;;14.07;12.70;;;27.00;99.90;;;;;;5022711;28;20437;-59
2021/04/28 11:22:03;;;;;;;14.20;12.97;;;27.30;99.90;;;;;;5026565;28;20440;-60
2021/04/28 11:24:50;;;;;;;12.53;11.53;;;27.60;99.90;;;;;;5028628;28;20417;-60
2021/04/28 11:27:37;;;;;;;13.97;12.70;;;27.80;99.90;;;;;;5025705;28;20185;-60
2021/04/28 11:30:03;;;;;;;13.30;12.20;;;28.40;99.90;;;;;;5028072;28;20476;-60
2021/04/28 11:32:30;;;;;;;13.13;11.73;;;29.10;99.90;;;;;;5027911;28;20535;-60
2021/04/28 11:34:56;;;;;;;15.00;13.83;;;29.40;99.90;;;;;;5028139;28;20760;-61
2021/04/28 11:37:21;;;;;;;14.90;13.60;;;29.40;99.90;;;;;;5027930;28;20444;-61
2021/04/28 11:39:47;;;;;;;13.83;12.83;;;29.10;99.90;;;;;;5026978;28;20221;-60
2021/04/28 11:42:18;;;;;;;13.90;12.53;;;29.20;99.90;;;;;;5027926;28;20178;-60
2021/04/28 11:44:48;;;;;;;14.00;12.83;;;29.20;99.90;;;;;;5028441;28;20179;-60
2021/04/28 11:47:15;;;;;;;12.37;11.37;;;29.10;99.90;;;;;;5022234;28;20438;-61
2021/04/28 11:49:47;;;;;;;12.50;11.43;;;29.20;99.90;;;;;;5023733;28;20670;-59
2021/04/28 11:52:14;;;;;;;14.20;13.00;;;29.40;99.90;;;;;;5017304;28;20435;-59
2021/04/28 11:54:43;;;;;;;13.00;12.00;;;29.60;99.90;;;;;;5011429;28;20414;-60
2021/04/28 11:57:10;;;;;;;11.70;10.70;;;29.80;99.90;;;;;;5016597;28;20436;-60
2021/04/28 11:59:37;;;;;;;13.10;12.03;;;30.30;99.90;;;;;;5014730;28;20414;-60
2021/04/28 12:02:05;;;;;;;13.70;12.60;;;30.10;99.90;;;;;;5014323;28;20433;-59
2021/04/28 12:04:35;;;;;;;12.37;11.40;;;29.60;99.90;;;;;;5025467;28;20482;-59
2021/04/28 12:07:01;;;;;;;11.50;10.60;;;29.10;99.90;;;;;;5031874;28;20957;-59
2021/04/28 12:09:48;;;;;;;11.67;10.77;;;28.70;99.90;;;;;;5030301;28;20425;-58
2021/04/28 12:12:24;;;;;;;12.00;11.00;;;28.80;99.90;;;;;;5027520;28;20805;-59
2021/04/28 12:15:07;;;;;;;12.07;11.00;;;28.50;99.90;;;;;;5032011;28;20435;-59
2021/04/28 12:17:47;;;;;;;12.63;11.73;;;28.80;99.90;;;;;;5029668;28;20443;-60
2021/04/28 12:20:21;;;;;;;11.17;10.37;;;29.20;99.90;;;;;;5029987;28;20429;-60
2021/04/28 12:22:47;;;;;;;11.60;10.70;;;29.40;99.90;;;;;;5022375;28;20429;-59
2021/04/28 12:25:15;;;;;;;12.47;11.53;;;29.00;99.90;;;;;;5030428;28;20853;-60
2021/04/28 12:27:43;;;;;;;11.30;10.40;;;28.90;99.90;;;;;;5044167;28;20433;-61
2021/04/28 12:30:10;;;;;;;12.90;11.80;;;29.10;99.90;;;;;;5024248;28;20489;-60
2021/04/28 12:32:37;;;;;;;11.20;10.30;;;29.00;99.90;;;;;;5031466;28;20425;-60
2021/04/28 12:35:19;;;;;;;11.40;10.60;;;29.00;99.90;;;;;;5030936;28;20950;-59
2021/04/28 12:38:13;;;;;;;12.53;11.53;;;29.00;99.90;;;;;;5019175;28;20482;-60
2021/04/28 12:40:47;;;;;;;13.37;12.17;;;28.40;99.90;;;;;;5031643;28;20520;-60
2021/04/28 12:43:17;;;;;;;12.40;11.30;;;28.40;99.90;;;;;;5038795;28;20424;-60
2021/04/28 12:45:43;;;;;;;11.70;10.77;;;28.10;99.90;;;;;;5030616;28;20417;-59
2021/04/28 12:48:16;;;;;;;10.80;10.00;;;27.90;99.90;;;;;;5030473;28;20475;-59